createdAt,value
2019-03-06T00:00:54.746Z,18.37
2019-03-06T00:02:31.085Z,18.70
2019-03-06T00:04:07.265Z,20.13
2019-03-06T00:05:43.478Z,19.40
2019-03-06T00:07:20.291Z,20.13
2019-03-06T00:08:57.824Z,19.63
2019-03-06T00:10:35.679Z,19.70
2019-03-06T00:12:11.886Z,20.03
2019-03-06T00:13:48.307Z,20.33
2019-03-06T00:15:24.558Z,20.30
2019-03-06T00:17:01.652Z,19.63
2019-03-06T00:18:37.777Z,20.10
2019-03-06T00:20:14.077Z,19.80
2019-03-06T00:21:51.553Z,20.10
2019-03-06T00:23:27.679Z,21.67
2019-03-06T00:25:06.367Z,20.73
2019-03-06T00:26:42.509Z,19.63
2019-03-06T00:28:18.654Z,20.70
2019-03-06T00:29:54.854Z,20.17
2019-03-06T00:31:31.049Z,19.63
2019-03-06T00:33:07.352Z,20.40
2019-03-06T00:34:43.579Z,21.03
2019-03-06T00:36:20.460Z,19.33
2019-03-06T00:37:56.592Z,20.00
2019-03-06T00:39:34.353Z,19.83
2019-03-06T00:41:12.141Z,19.80
2019-03-06T00:42:51.672Z,19.40
2019-03-06T00:44:27.737Z,20.10
2019-03-06T00:46:03.963Z,19.80
2019-03-06T00:47:40.343Z,20.20
2019-03-06T00:49:16.406Z,19.57
2019-03-06T00:50:52.720Z,19.30
2019-03-06T00:52:29.012Z,21.37
2019-03-06T00:54:05.332Z,21.33
2019-03-06T00:55:41.391Z,20.90
2019-03-06T00:57:17.392Z,20.67
2019-03-06T00:58:53.561Z,22.07
2019-03-06T01:00:29.715Z,21.80
2019-03-06T01:02:05.818Z,21.00
2019-03-06T01:03:41.862Z,20.40
2019-03-06T01:05:18.990Z,21.43
2019-03-06T01:06:55.596Z,20.23
2019-03-06T01:08:31.900Z,21.60
2019-03-06T01:10:14.474Z,22.80
2019-03-06T01:11:50.701Z,23.00
2019-03-06T01:13:26.907Z,21.23
2019-03-06T01:15:03.204Z,22.07
2019-03-06T01:16:39.345Z,20.77
2019-03-06T01:18:16.832Z,22.33
2019-03-06T01:19:52.878Z,22.20
2019-03-06T01:21:29.220Z,23.03
2019-03-06T01:23:05.424Z,21.63
2019-03-06T01:24:41.462Z,23.20
2019-03-06T01:26:17.754Z,23.17
2019-03-06T01:27:54.080Z,22.90
2019-03-06T01:29:30.218Z,23.47
2019-03-06T01:31:18.077Z,22.97
2019-03-06T01:33:06.106Z,22.80
2019-03-06T01:34:49.532Z,23.10
2019-03-06T01:36:36.108Z,22.93
2019-03-06T01:38:29.895Z,22.77
2019-03-06T01:40:11.063Z,22.27
2019-03-06T01:41:58.088Z,21.93
2019-03-06T01:43:35.875Z,22.83
2019-03-06T01:45:12.156Z,22.23
2019-03-06T01:46:48.394Z,21.40
2019-03-06T01:48:24.488Z,22.37
2019-03-06T01:50:00.696Z,22.00
2019-03-06T01:51:36.823Z,20.03
2019-03-06T01:53:13.039Z,21.13
2019-03-06T01:54:49.181Z,20.97
2019-03-06T01:56:25.473Z,21.50
2019-03-06T01:58:01.470Z,22.00
2019-03-06T01:59:37.707Z,22.23
2019-03-06T02:01:13.740Z,21.77
2019-03-06T02:02:49.847Z,21.73
2019-03-06T02:04:26.052Z,22.20
2019-03-06T02:06:02.265Z,22.57
2019-03-06T02:07:38.848Z,24.67
2019-03-06T02:09:20.239Z,23.17
2019-03-06T02:10:56.157Z,23.33
2019-03-06T02:12:32.173Z,24.30
2019-03-06T02:14:08.257Z,24.60
2019-03-06T02:15:44.451Z,24.77
2019-03-06T02:17:20.651Z,24.97
2019-03-06T02:18:57.064Z,25.83
2019-03-06T02:20:33.159Z,24.93
2019-03-06T02:22:09.297Z,25.70
2019-03-06T02:23:45.524Z,24.43
2019-03-06T02:25:21.719Z,22.73
2019-03-06T02:26:57.926Z,22.37
2019-03-06T02:28:34.147Z,22.60
2019-03-06T02:30:22.522Z,22.50
2019-03-06T02:31:58.579Z,23.33
2019-03-06T02:33:34.854Z,22.23
2019-03-06T02:35:12.503Z,20.60
2019-03-06T02:36:48.672Z,21.27
2019-03-06T02:38:24.921Z,21.67
2019-03-06T02:40:01.061Z,21.93
2019-03-06T02:41:37.470Z,21.87
2019-03-06T02:43:13.555Z,21.70
2019-03-06T02:44:49.797Z,21.80
2019-03-06T02:46:26.025Z,21.93
2019-03-06T02:48:02.054Z,21.67
2019-03-06T02:49:38.027Z,22.87
2019-03-06T02:51:15.521Z,21.77
2019-03-06T02:52:51.671Z,22.60
2019-03-06T02:54:27.889Z,22.47
2019-03-06T02:56:04.034Z,21.30
2019-03-06T02:57:41.911Z,21.90
2019-03-06T02:59:19.615Z,21.93
2019-03-06T03:00:57.464Z,21.37
2019-03-06T03:02:38.210Z,22.07
2019-03-06T03:04:16.183Z,21.50
2019-03-06T03:06:06.162Z,22.93
2019-03-06T03:07:42.346Z,21.73
2019-03-06T03:09:19.790Z,21.67
2019-03-06T03:10:55.902Z,21.27
2019-03-06T03:12:32.037Z,20.20
2019-03-06T03:14:08.277Z,21.40
2019-03-06T03:15:44.308Z,21.60
2019-03-06T03:17:20.553Z,20.83
2019-03-06T03:18:56.961Z,23.13
2019-03-06T03:20:33.028Z,21.03
2019-03-06T03:22:10.526Z,21.07
2019-03-06T03:23:46.760Z,21.47
2019-03-06T03:25:22.978Z,18.87
2019-03-06T03:26:59.192Z,19.20
2019-03-06T03:28:35.260Z,20.40
2019-03-06T03:30:15.177Z,19.03
2019-03-06T03:31:51.347Z,19.40
2019-03-06T03:33:27.615Z,19.73
2019-03-06T03:35:03.952Z,20.47
2019-03-06T03:36:40.017Z,19.27
2019-03-06T03:38:16.082Z,20.10
2019-03-06T03:39:52.080Z,20.73
2019-03-06T03:41:28.375Z,20.17
2019-03-06T03:43:04.519Z,20.93
2019-03-06T03:44:40.755Z,19.63
2019-03-06T03:46:16.823Z,20.80
2019-03-06T03:47:53.030Z,21.27
2019-03-06T03:49:29.088Z,19.40
2019-03-06T03:51:06.596Z,19.97
2019-03-06T03:52:42.902Z,20.67
2019-03-06T03:54:19.097Z,20.53
2019-03-06T03:55:55.169Z,18.77
2019-03-06T03:57:31.762Z,20.70
2019-03-06T03:59:07.901Z,20.77
2019-03-06T04:00:44.161Z,19.70
2019-03-06T04:02:20.624Z,19.83
2019-03-06T04:03:56.896Z,18.33
2019-03-06T04:05:33.018Z,20.50
2019-03-06T04:07:09.234Z,19.67
2019-03-06T04:08:46.725Z,21.80
2019-03-06T04:10:22.892Z,21.17
2019-03-06T04:11:58.958Z,22.30
2019-03-06T04:13:34.923Z,23.10
2019-03-06T04:15:14.889Z,22.60
2019-03-06T04:16:50.924Z,20.80
2019-03-06T04:18:26.914Z,21.67
2019-03-06T04:20:03.078Z,21.30
2019-03-06T04:21:39.132Z,21.30
2019-03-06T04:23:15.283Z,21.77
2019-03-06T04:24:51.410Z,22.33
2019-03-06T04:26:27.550Z,22.50
2019-03-06T04:28:04.045Z,22.30
2019-03-06T04:29:40.225Z,23.53
2019-03-06T04:31:16.441Z,22.33
2019-03-06T04:32:52.649Z,22.43
2019-03-06T04:34:28.608Z,21.87
2019-03-06T04:36:04.816Z,22.37
2019-03-06T04:37:40.945Z,22.90
2019-03-06T04:39:16.915Z,23.00
2019-03-06T04:40:53.131Z,21.93
2019-03-06T04:42:29.211Z,22.13
2019-03-06T04:44:05.256Z,23.40
2019-03-06T04:45:41.319Z,22.80
2019-03-06T04:47:17.625Z,21.67
2019-03-06T04:48:53.695Z,23.30
2019-03-06T04:50:29.838Z,22.50
2019-03-06T04:52:05.922Z,23.03
2019-03-06T04:53:43.352Z,24.60
2019-03-06T04:55:19.629Z,23.93
2019-03-06T04:56:55.584Z,24.50
2019-03-06T04:58:31.517Z,23.07
2019-03-06T05:00:19.226Z,24.60
2019-03-06T05:01:55.431Z,24.13
2019-03-06T05:03:31.456Z,24.07
2019-03-06T05:05:07.958Z,25.17
2019-03-06T05:06:43.999Z,25.60
2019-03-06T05:08:19.983Z,26.67
2019-03-06T05:09:56.278Z,27.63
2019-03-06T05:11:32.171Z,26.53
2019-03-06T05:13:08.138Z,28.03
2019-03-06T05:14:44.376Z,27.63
2019-03-06T05:16:22.176Z,26.63
2019-03-06T05:18:05.566Z,25.90
2019-03-06T05:19:41.984Z,26.97
2019-03-06T05:21:19.402Z,28.13
2019-03-06T05:22:55.710Z,27.80
2019-03-06T05:24:31.810Z,26.07
2019-03-06T05:26:08.067Z,25.57
2019-03-06T05:27:44.303Z,24.33
2019-03-06T05:29:20.367Z,23.97
2019-03-06T05:30:56.452Z,24.40
2019-03-06T05:32:37.091Z,22.80
2019-03-06T05:34:13.250Z,23.60
2019-03-06T05:36:12.912Z,23.57
2019-03-06T05:37:57.018Z,23.67
2019-03-06T05:39:32.983Z,22.83
2019-03-06T05:41:08.954Z,24.10
2019-03-06T05:42:45.284Z,23.57
2019-03-06T05:44:21.388Z,23.60
2019-03-06T05:45:57.452Z,24.37
2019-03-06T05:47:33.607Z,23.10
2019-03-06T05:49:09.670Z,22.20
2019-03-06T05:50:45.803Z,21.53
2019-03-06T05:52:21.963Z,22.33
2019-03-06T05:53:58.175Z,22.20
2019-03-06T05:55:34.260Z,22.87
2019-03-06T05:57:10.252Z,22.30
2019-03-06T05:58:46.231Z,22.27
2019-03-06T06:00:27.004Z,22.63
2019-03-06T06:02:03.151Z,22.23
2019-03-06T06:03:39.359Z,22.63
2019-03-06T06:05:15.932Z,21.90
2019-03-06T06:06:51.893Z,22.83
2019-03-06T06:08:27.898Z,23.20
2019-03-06T06:10:04.777Z,23.13
2019-03-06T06:11:40.843Z,23.57
2019-03-06T06:13:16.743Z,21.50
2019-03-06T06:14:52.880Z,21.27
2019-03-06T06:16:29.302Z,19.50
2019-03-06T06:18:05.604Z,19.40
2019-03-06T06:19:41.747Z,21.13
2019-03-06T06:21:22.407Z,20.53
2019-03-06T06:23:16.300Z,19.53
2019-03-06T06:24:52.432Z,19.63
2019-03-06T06:26:28.578Z,19.73
2019-03-06T06:28:04.780Z,18.43
2019-03-06T06:29:40.899Z,20.13
2019-03-06T06:31:16.859Z,19.03
2019-03-06T06:32:53.096Z,20.17
2019-03-06T06:34:29.777Z,20.03
2019-03-06T06:36:06.019Z,19.83
2019-03-06T06:37:42.146Z,19.93
2019-03-06T06:39:18.258Z,21.17
2019-03-06T06:40:54.401Z,19.77
2019-03-06T06:42:30.472Z,19.73
2019-03-06T06:44:06.600Z,21.07
2019-03-06T06:45:42.576Z,18.03
2019-03-06T06:47:18.722Z,19.23
2019-03-06T06:48:54.708Z,19.83
2019-03-06T06:50:30.861Z,18.83
2019-03-06T06:52:37.157Z,17.90
2019-03-06T06:54:29.689Z,21.33
2019-03-06T06:56:42.010Z,21.00
2019-03-06T06:58:40.699Z,19.70
2019-03-06T07:00:52.473Z,18.10
2019-03-06T07:03:03.515Z,18.73
2019-03-06T07:04:57.602Z,22.30
2019-03-06T07:06:35.239Z,21.67
2019-03-06T07:08:11.019Z,19.97
2019-03-06T07:10:04.931Z,19.17
2019-03-06T07:11:42.985Z,18.83
2019-03-06T07:13:20.865Z,18.93
2019-03-06T07:15:02.853Z,18.77
2019-03-06T07:16:49.431Z,19.57
2019-03-06T07:18:29.860Z,20.50
2019-03-06T07:20:09.351Z,19.20
2019-03-06T07:21:48.169Z,19.77
2019-03-06T07:23:26.010Z,20.83
2019-03-06T07:25:03.853Z,20.37
2019-03-06T07:26:49.164Z,22.20
2019-03-06T07:28:32.590Z,22.60
2019-03-06T07:30:16.613Z,22.83
2019-03-06T07:32:00.571Z,21.97
2019-03-06T07:33:47.779Z,21.70
2019-03-06T07:35:58.520Z,22.53
2019-03-06T07:37:40.685Z,22.00
2019-03-06T07:39:24.080Z,22.33
2019-03-06T07:41:18.025Z,21.37
2019-03-06T07:42:55.855Z,22.37
2019-03-06T07:44:34.604Z,22.20
2019-03-06T07:46:19.471Z,22.77
2019-03-06T07:48:09.453Z,22.10
2019-03-06T07:50:00.960Z,23.63
2019-03-06T07:51:52.058Z,22.13
2019-03-06T07:53:59.498Z,22.37
2019-03-06T07:55:54.587Z,22.53
2019-03-06T07:57:32.354Z,22.80
2019-03-06T07:59:08.556Z,22.40
2019-03-06T08:00:44.658Z,22.87
2019-03-06T08:03:00.426Z,20.80
2019-03-06T08:04:36.559Z,18.47
2019-03-06T08:06:12.694Z,18.67
2019-03-06T08:07:48.861Z,19.30
2019-03-06T08:09:25.564Z,17.50
2019-03-06T08:11:02.806Z,17.60
2019-03-06T08:12:40.504Z,19.47
2019-03-06T08:14:34.611Z,16.63
2019-03-06T08:16:12.404Z,15.57
2019-03-06T08:17:56.204Z,16.87
2019-03-06T08:19:46.148Z,15.90
2019-03-06T08:21:40.583Z,15.07
2019-03-06T08:23:27.243Z,14.80
2019-03-06T08:25:11.063Z,14.27
2019-03-06T08:26:47.304Z,14.37
2019-03-06T08:28:23.381Z,13.27
2019-03-06T08:29:59.417Z,13.13
2019-03-06T08:31:37.300Z,12.50
2019-03-06T08:33:18.284Z,14.23
2019-03-06T08:34:51.551Z,15.87
2019-03-06T08:36:27.689Z,15.77
2019-03-06T08:38:03.829Z,14.97
2019-03-06T08:39:40.051Z,14.53
2019-03-06T08:41:16.280Z,13.27
2019-03-06T08:42:52.502Z,12.50
2019-03-06T08:44:28.620Z,12.40
2019-03-06T08:46:15.689Z,12.63
2019-03-06T08:47:51.793Z,11.00
2019-03-06T08:49:41.895Z,11.23
2019-03-06T08:51:28.650Z,11.83
2019-03-06T08:53:18.867Z,12.33
2019-03-06T08:55:05.404Z,12.67
2019-03-06T08:56:58.240Z,11.57
2019-03-06T08:58:41.786Z,10.53
2019-03-06T09:00:26.182Z,11.57
2019-03-06T09:02:04.032Z,10.70
2019-03-06T09:03:47.524Z,11.90
2019-03-06T09:05:25.278Z,10.73
2019-03-06T09:07:19.248Z,10.60
2019-03-06T09:09:10.507Z,11.07
2019-03-06T09:10:48.187Z,9.73
2019-03-06T09:12:26.174Z,10.13
2019-03-06T09:14:06.705Z,9.97
2019-03-06T09:15:42.609Z,10.10
2019-03-06T09:17:23.344Z,9.93
2019-03-06T09:19:01.104Z,11.17
2019-03-06T09:20:44.903Z,10.47
2019-03-06T09:22:25.388Z,9.43
2019-03-06T09:24:11.849Z,8.37
2019-03-06T09:25:50.494Z,10.20
2019-03-06T09:27:37.375Z,9.63
2019-03-06T09:29:21.134Z,9.33
2019-03-06T09:31:01.549Z,9.93
2019-03-06T09:32:45.450Z,10.17
2019-03-06T09:34:29.121Z,9.70
2019-03-06T09:36:16.036Z,9.70
2019-03-06T09:38:11.207Z,10.63
2019-03-06T09:39:49.432Z,9.30
2019-03-06T09:41:32.884Z,9.50
2019-03-06T09:43:17.788Z,9.30
2019-03-06T09:44:55.470Z,9.00
2019-03-06T09:46:33.320Z,8.93
2019-03-06T09:48:12.735Z,9.70
2019-03-06T09:49:50.690Z,9.53
2019-03-06T09:51:31.225Z,9.53
2019-03-06T09:53:24.407Z,10.27
2019-03-06T09:55:02.078Z,9.20
2019-03-06T09:56:51.918Z,9.30
2019-03-06T09:58:29.698Z,8.33
2019-03-06T10:00:12.287Z,8.60
2019-03-06T10:02:07.062Z,9.60
2019-03-06T10:03:54.025Z,9.13
2019-03-06T10:05:40.985Z,9.57
2019-03-06T10:07:18.712Z,7.83
2019-03-06T10:08:59.573Z,9.40
2019-03-06T10:10:46.013Z,8.70
2019-03-06T10:12:19.796Z,8.43
2019-03-06T10:14:06.852Z,8.07
2019-03-06T10:15:45.272Z,7.77
2019-03-06T10:17:26.109Z,8.57
2019-03-06T10:19:08.779Z,8.40
2019-03-06T10:20:45.019Z,9.57
2019-03-06T10:22:21.232Z,9.33
2019-03-06T10:23:57.439Z,8.57
2019-03-06T10:25:33.832Z,8.13
2019-03-06T10:27:10.252Z,8.17
2019-03-06T10:28:46.453Z,7.50
2019-03-06T10:30:22.875Z,6.43
2019-03-06T10:31:59.465Z,9.20
2019-03-06T10:33:35.948Z,7.63
2019-03-06T10:35:16.010Z,6.90
2019-03-06T10:36:52.231Z,6.83
2019-03-06T10:38:28.431Z,6.80
2019-03-06T10:40:07.048Z,7.67
2019-03-06T10:41:43.251Z,6.60
2019-03-06T10:43:21.014Z,6.77
2019-03-06T10:44:57.223Z,7.30
2019-03-06T10:46:33.350Z,6.27
2019-03-06T10:48:09.699Z,6.63
2019-03-06T10:49:45.840Z,6.83
2019-03-06T10:51:21.976Z,7.77
2019-03-06T10:52:58.192Z,7.20
2019-03-06T10:54:37.893Z,8.13
2019-03-06T10:56:12.226Z,6.53
2019-03-06T10:57:48.661Z,7.47
2019-03-06T10:59:24.702Z,7.03
2019-03-06T11:01:00.998Z,7.13
2019-03-06T11:02:37.280Z,6.80
2019-03-06T11:04:15.238Z,6.97
2019-03-06T11:05:51.716Z,7.50
2019-03-06T11:07:27.923Z,6.97
2019-03-06T11:09:05.909Z,7.53
2019-03-06T11:10:42.118Z,7.37
2019-03-06T11:12:18.257Z,6.67
2019-03-06T11:13:54.398Z,7.07
2019-03-06T11:15:30.922Z,7.20
2019-03-06T11:17:07.131Z,6.43
2019-03-06T11:18:43.756Z,6.30
2019-03-06T11:20:35.641Z,6.87
2019-03-06T11:22:11.952Z,7.70
2019-03-06T11:23:48.166Z,7.83
2019-03-06T11:25:26.848Z,7.97
2019-03-06T11:27:03.999Z,8.50
2019-03-06T11:28:40.524Z,7.13
2019-03-06T11:30:30.053Z,6.80
2019-03-06T11:32:07.738Z,6.27
2019-03-06T11:33:44.347Z,5.57
2019-03-06T11:35:24.020Z,5.57
2019-03-06T11:37:00.333Z,6.70
2019-03-06T11:38:36.644Z,6.80
2019-03-06T11:40:18.840Z,7.00
2019-03-06T11:41:55.224Z,6.90
2019-03-06T11:43:31.444Z,6.83
2019-03-06T11:45:11.823Z,6.50
2019-03-06T11:46:48.025Z,7.30
2019-03-06T11:48:24.562Z,7.03
2019-03-06T11:50:00.691Z,7.50
2019-03-06T11:51:36.899Z,7.30
2019-03-06T11:53:13.109Z,7.67
2019-03-06T11:54:49.351Z,7.20
2019-03-06T11:56:25.553Z,7.37
2019-03-06T11:58:02.036Z,7.33
2019-03-06T11:59:40.859Z,8.37
2019-03-06T12:01:19.817Z,6.63
2019-03-06T12:02:55.928Z,7.93
2019-03-06T12:04:32.106Z,8.27
2019-03-06T12:06:08.512Z,8.50
2019-03-06T12:07:44.616Z,8.07
2019-03-06T12:09:27.546Z,7.83
2019-03-06T12:11:03.681Z,8.63
2019-03-06T12:12:39.822Z,8.20
2019-03-06T12:14:16.020Z,8.40
2019-03-06T12:15:53.429Z,7.17
2019-03-06T12:17:29.640Z,7.60
2019-03-06T12:19:05.760Z,8.30
2019-03-06T12:20:41.972Z,8.20
2019-03-06T12:22:18.103Z,7.77
2019-03-06T12:23:54.219Z,8.70
2019-03-06T12:25:30.720Z,8.30
2019-03-06T12:27:07.237Z,8.40
2019-03-06T12:28:43.347Z,7.93
2019-03-06T12:30:21.132Z,7.20
2019-03-06T12:31:57.431Z,8.40
2019-03-06T12:33:33.926Z,8.13
2019-03-06T12:35:14.361Z,8.07
2019-03-06T12:36:50.573Z,7.67
2019-03-06T12:38:27.293Z,9.50
2019-03-06T12:40:11.948Z,8.33
2019-03-06T12:41:41.772Z,8.27
2019-03-06T12:43:24.331Z,9.40
2019-03-06T12:45:00.639Z,9.20
2019-03-06T12:46:36.851Z,7.97
2019-03-06T12:48:18.545Z,6.90
2019-03-06T12:49:54.753Z,7.93
2019-03-06T12:51:30.897Z,7.97
2019-03-06T12:53:07.121Z,7.93
2019-03-06T12:54:43.425Z,8.40
2019-03-06T12:56:19.638Z,7.97
2019-03-06T12:57:59.446Z,7.90
2019-03-06T12:59:33.621Z,8.50
2019-03-06T13:01:09.830Z,8.23
2019-03-06T13:02:46.234Z,6.80
2019-03-06T13:04:22.347Z,7.40
2019-03-06T13:05:58.557Z,7.77
2019-03-06T13:07:34.600Z,6.93
2019-03-06T13:09:16.962Z,7.07
2019-03-06T13:10:53.228Z,7.63
2019-03-06T13:12:29.369Z,7.90
2019-03-06T13:14:06.906Z,8.30
2019-03-06T13:15:43.102Z,7.93
2019-03-06T13:17:19.246Z,8.83
2019-03-06T13:18:55.549Z,11.07
2019-03-06T13:20:31.684Z,8.00
2019-03-06T13:22:11.252Z,8.03
2019-03-06T13:23:45.723Z,8.50
2019-03-06T13:25:25.608Z,9.17
2019-03-06T13:27:01.650Z,9.07
2019-03-06T13:28:37.723Z,9.00
2019-03-06T13:30:16.965Z,8.33
2019-03-06T13:31:53.190Z,8.07
2019-03-06T13:33:40.339Z,8.17
2019-03-06T13:35:16.958Z,7.57
2019-03-06T13:36:53.267Z,7.70
2019-03-06T13:38:29.355Z,6.97
2019-03-06T13:40:07.463Z,7.47
2019-03-06T13:41:43.457Z,8.50
2019-03-06T13:43:19.771Z,7.30
2019-03-06T13:44:55.846Z,7.43
2019-03-06T13:46:32.052Z,7.70
2019-03-06T13:48:08.182Z,7.60
2019-03-06T13:49:44.396Z,7.37
2019-03-06T13:51:21.459Z,6.80
2019-03-06T13:52:58.065Z,6.77
2019-03-06T13:54:34.198Z,6.83
2019-03-06T13:56:10.645Z,6.00
2019-03-06T13:57:47.511Z,7.23
2019-03-06T13:59:23.903Z,6.60
2019-03-06T14:01:00.196Z,7.03
2019-03-06T14:02:37.266Z,6.80
2019-03-06T14:04:13.380Z,7.50
2019-03-06T14:05:49.519Z,6.17
2019-03-06T14:07:25.939Z,6.43
2019-03-06T14:09:04.859Z,8.17
2019-03-06T14:10:41.164Z,7.67
2019-03-06T14:12:17.207Z,8.20
2019-03-06T14:13:54.542Z,7.00
2019-03-06T14:15:30.795Z,6.80
2019-03-06T14:17:08.314Z,7.97
2019-03-06T14:18:44.927Z,7.33
2019-03-06T14:20:23.311Z,7.53
2019-03-06T14:22:19.032Z,6.67
2019-03-06T14:23:56.788Z,7.10
2019-03-06T14:25:33.698Z,8.30
2019-03-06T14:27:10.678Z,8.60
2019-03-06T14:28:47.012Z,7.17
2019-03-06T14:30:32.994Z,7.30
2019-03-06T14:32:14.608Z,7.43
2019-03-06T14:33:47.108Z,6.83
2019-03-06T14:35:23.917Z,7.80
2019-03-06T14:37:00.044Z,7.37
2019-03-06T14:38:36.455Z,7.33
2019-03-06T14:40:34.177Z,7.47
2019-03-06T14:42:10.527Z,6.97
2019-03-06T14:43:46.797Z,6.23
2019-03-06T14:45:22.915Z,6.87
2019-03-06T14:46:59.052Z,6.50
2019-03-06T14:48:35.224Z,6.60
2019-03-06T14:50:11.533Z,7.33
2019-03-06T14:51:47.855Z,7.37
2019-03-06T14:53:23.992Z,7.40
2019-03-06T14:55:00.069Z,8.10
2019-03-06T14:56:36.309Z,7.73
2019-03-06T14:58:12.817Z,8.10
2019-03-06T14:59:48.902Z,9.27
2019-03-06T15:01:24.896Z,10.27
2019-03-06T15:03:01.132Z,9.17
2019-03-06T15:04:37.230Z,9.30
2019-03-06T15:06:13.377Z,10.63
2019-03-06T15:07:49.856Z,12.63
2019-03-06T15:09:26.962Z,12.10
2019-03-06T15:11:03.026Z,9.27
2019-03-06T15:12:39.238Z,10.40
2019-03-06T15:14:15.329Z,10.80
2019-03-06T15:15:51.584Z,11.43
2019-03-06T15:17:27.718Z,12.57
2019-03-06T15:19:03.789Z,12.67
2019-03-06T15:20:39.896Z,14.10
2019-03-06T15:22:16.025Z,14.17
2019-03-06T15:23:52.230Z,13.20
2019-03-06T15:25:30.551Z,14.30
2019-03-06T15:27:06.656Z,14.50
2019-03-06T15:28:43.329Z,13.50
2019-03-06T15:30:20.717Z,13.70
2019-03-06T15:31:56.855Z,15.80
2019-03-06T15:33:34.261Z,16.50
2019-03-06T15:35:12.274Z,14.53
2019-03-06T15:36:50.531Z,21.37
2019-03-06T15:38:26.849Z,17.50
2019-03-06T15:40:03.451Z,17.00
2019-03-06T15:41:39.441Z,16.13
2019-03-06T15:43:16.600Z,15.50
2019-03-06T15:44:52.937Z,15.43
2019-03-06T15:46:28.995Z,17.37
2019-03-06T15:48:05.777Z,15.37
2019-03-06T15:49:41.858Z,20.47
2019-03-06T15:51:18.264Z,19.03
2019-03-06T15:52:54.458Z,17.43
2019-03-06T15:54:30.667Z,15.70
2019-03-06T15:56:06.987Z,16.97
2019-03-06T15:57:43.079Z,18.20
2019-03-06T15:59:19.354Z,20.13
2019-03-06T16:00:55.556Z,25.27
2019-03-06T16:02:31.873Z,27.20
2019-03-06T16:04:08.708Z,28.50
2019-03-06T16:05:45.315Z,27.77
2019-03-06T16:07:21.556Z,29.70
2019-03-06T16:08:57.752Z,29.43
2019-03-06T16:10:34.753Z,33.40
2019-03-06T16:12:12.326Z,34.87
2019-03-06T16:13:48.763Z,33.27
2019-03-06T16:15:28.972Z,35.17
2019-03-06T16:17:05.075Z,35.93
2019-03-06T16:18:41.224Z,37.73
2019-03-06T16:20:22.668Z,40.80
2019-03-06T16:21:59.083Z,44.03
2019-03-06T16:23:35.507Z,47.20
2019-03-06T16:25:11.730Z,51.67
2019-03-06T16:26:48.070Z,56.43
2019-03-06T16:28:24.454Z,53.93
2019-03-06T16:30:00.764Z,57.27
2019-03-06T16:31:36.980Z,63.00
2019-03-06T16:33:13.181Z,68.47
2019-03-06T16:34:49.475Z,70.20
2019-03-06T16:36:25.704Z,58.83
2019-03-06T16:38:01.787Z,60.30
2019-03-06T16:39:39.478Z,60.37
2019-03-06T16:41:17.122Z,49.07
2019-03-06T16:42:54.122Z,43.63
2019-03-06T16:44:31.122Z,43.10
2019-03-06T16:46:07.451Z,56.37
2019-03-06T16:47:43.755Z,71.77
2019-03-06T16:49:19.954Z,72.07
2019-03-06T16:50:56.169Z,73.53
2019-03-06T16:52:32.393Z,68.23
2019-03-06T16:54:08.624Z,48.33
2019-03-06T16:55:44.835Z,57.37
2019-03-06T16:57:21.068Z,68.47
2019-03-06T16:58:57.141Z,67.93
2019-03-06T17:00:37.817Z,67.73
2019-03-06T17:02:14.028Z,63.15
2019-03-06T17:03:50.223Z,68.07
2019-03-06T17:05:26.646Z,65.07
2019-03-06T17:07:03.092Z,55.83
2019-03-06T17:08:39.392Z,59.63
2019-03-06T17:10:18.683Z,68.93
2019-03-06T17:11:54.839Z,101.10
2019-03-06T17:13:31.082Z,104.00
2019-03-06T17:15:10.220Z,103.50
2019-03-06T17:16:46.443Z,72.20
2019-03-06T17:18:22.772Z,84.27
2019-03-06T17:19:58.917Z,93.93
2019-03-06T17:21:35.423Z,72.80
2019-03-06T17:23:11.558Z,84.20
2019-03-06T17:24:47.911Z,97.60
2019-03-06T17:26:24.116Z,104.97
2019-03-06T17:28:00.341Z,123.13
2019-03-06T17:29:36.715Z,65.67
2019-03-06T17:31:13.097Z,62.87
2019-03-06T17:33:14.611Z,44.57
2019-03-06T17:34:51.049Z,56.50
2019-03-06T17:36:27.181Z,59.27
2019-03-06T17:38:03.887Z,60.57
2019-03-06T17:39:41.323Z,58.13
2019-03-06T17:41:17.638Z,46.30
2019-03-06T17:42:53.740Z,51.20
2019-03-06T17:44:29.866Z,43.83
2019-03-06T17:46:06.643Z,46.03
2019-03-06T17:47:42.706Z,42.27
2019-03-06T17:49:18.906Z,43.13
2019-03-06T17:50:55.411Z,47.50
2019-03-06T17:52:31.951Z,61.27
2019-03-06T17:54:10.454Z,62.77
2019-03-06T17:55:46.488Z,63.90
2019-03-06T17:57:22.633Z,60.33
2019-03-06T17:58:58.902Z,65.53
2019-03-06T18:00:43.129Z,52.57
2019-03-06T18:02:19.339Z,45.40
2019-03-06T18:03:57.089Z,38.27
2019-03-06T18:05:33.227Z,34.27
2019-03-06T18:07:09.510Z,35.90
2019-03-06T18:08:45.687Z,31.93
2019-03-06T18:10:22.000Z,32.30
2019-03-06T18:11:58.306Z,35.43
2019-03-06T18:13:34.333Z,35.83
2019-03-06T18:15:14.399Z,32.27
2019-03-06T18:16:50.668Z,30.03
2019-03-06T18:18:26.808Z,41.43
2019-03-06T18:20:03.020Z,36.77
2019-03-06T18:21:39.073Z,38.57
2019-03-06T18:23:15.288Z,47.50
2019-03-06T18:24:51.491Z,45.47
2019-03-06T18:26:27.655Z,42.30
2019-03-06T18:28:03.762Z,47.13
2019-03-06T18:29:39.858Z,27.00
2019-03-06T18:31:16.069Z,37.40
2019-03-06T18:32:52.380Z,54.80
2019-03-06T18:34:28.610Z,53.40
2019-03-06T18:36:04.906Z,74.10
2019-03-06T18:37:41.032Z,69.47
2019-03-06T18:39:17.931Z,53.83
2019-03-06T18:40:54.181Z,58.27
2019-03-06T18:42:30.318Z,43.60
2019-03-06T18:44:06.705Z,42.00
2019-03-06T18:45:42.840Z,45.47
2019-03-06T18:47:19.051Z,60.13
2019-03-06T18:48:55.198Z,61.53
2019-03-06T18:50:31.408Z,50.77
2019-03-06T18:52:07.641Z,57.97
2019-03-06T18:53:43.828Z,79.57
2019-03-06T18:55:21.732Z,92.93
2019-03-06T18:56:57.799Z,55.60
2019-03-06T18:58:33.943Z,36.47
2019-03-06T19:00:20.042Z,43.53
2019-03-06T19:01:56.211Z,35.17
2019-03-06T19:03:32.586Z,40.27
2019-03-06T19:05:10.877Z,43.80
2019-03-06T19:06:46.932Z,38.13
2019-03-06T19:08:31.118Z,46.87
2019-03-06T19:10:01.125Z,52.07
2019-03-06T19:11:37.164Z,59.60
2019-03-06T19:13:13.567Z,53.70
2019-03-06T19:14:49.828Z,48.53
2019-03-06T19:16:26.047Z,56.37
2019-03-06T19:18:02.350Z,58.23
2019-03-06T19:19:38.694Z,45.57
2019-03-06T19:21:15.055Z,43.23
2019-03-06T19:22:52.753Z,50.63
2019-03-06T19:24:28.788Z,44.23
2019-03-06T19:26:05.119Z,52.10
2019-03-06T19:27:41.336Z,46.70
2019-03-06T19:29:17.463Z,48.47
2019-03-06T19:30:53.605Z,43.80
2019-03-06T19:32:29.838Z,41.83
2019-03-06T19:34:06.050Z,41.70
2019-03-06T19:35:42.174Z,47.63
2019-03-06T19:37:18.597Z,42.13
2019-03-06T19:38:54.657Z,48.00
2019-03-06T19:40:30.693Z,44.57
2019-03-06T19:42:07.203Z,42.27
2019-03-06T19:43:44.729Z,40.17
2019-03-06T19:45:27.326Z,44.63
2019-03-06T19:47:03.637Z,44.00
2019-03-06T19:48:39.826Z,41.60
2019-03-06T19:50:19.336Z,60.57
2019-03-06T19:51:55.482Z,81.53
2019-03-06T19:53:31.627Z,47.50
2019-03-06T19:55:11.256Z,55.03
2019-03-06T19:56:48.263Z,33.20
2019-03-06T19:58:24.487Z,39.97
2019-03-06T20:00:00.736Z,42.40
2019-03-06T20:01:36.843Z,32.93
2019-03-06T20:03:13.042Z,30.50
2019-03-06T20:04:49.535Z,34.47
2019-03-06T20:06:27.330Z,38.10
2019-03-06T20:08:05.511Z,32.00
2019-03-06T20:09:43.305Z,40.70
2019-03-06T20:11:19.524Z,42.03
2019-03-06T20:12:56.017Z,41.73
2019-03-06T20:14:32.241Z,40.10
2019-03-06T20:16:08.448Z,40.43
2019-03-06T20:17:44.591Z,38.43
2019-03-06T20:19:20.772Z,44.43
2019-03-06T20:20:57.347Z,28.43
2019-03-06T20:22:33.415Z,37.43
2019-03-06T20:24:09.772Z,46.43
2019-03-06T20:25:46.240Z,43.87
2019-03-06T20:27:22.334Z,38.13
2019-03-06T20:28:58.678Z,35.70
2019-03-06T20:30:34.904Z,37.57
2019-03-06T20:32:11.149Z,43.63
2019-03-06T20:33:47.346Z,32.03
2019-03-06T20:35:25.661Z,31.97
2019-03-06T20:37:01.907Z,35.77
2019-03-06T20:38:38.175Z,36.87
2019-03-06T20:40:14.386Z,36.83
2019-03-06T20:41:50.602Z,40.97
2019-03-06T20:43:26.666Z,40.53
2019-03-06T20:45:02.926Z,30.73
2019-03-06T20:46:39.032Z,40.00
2019-03-06T20:48:15.406Z,26.13
2019-03-06T20:49:51.481Z,30.63
2019-03-06T20:51:27.777Z,25.70
2019-03-06T20:53:04.139Z,41.30
2019-03-06T20:54:40.965Z,36.20
2019-03-06T20:56:19.134Z,33.10
2019-03-06T20:57:55.375Z,28.47
2019-03-06T20:59:34.358Z,22.97
2019-03-06T21:01:10.582Z,28.77
2019-03-06T21:02:47.848Z,23.53
2019-03-06T21:04:23.911Z,23.00
2019-03-06T21:05:59.966Z,23.43
2019-03-06T21:07:44.950Z,26.83
2019-03-06T21:09:14.051Z,27.07
2019-03-06T21:10:50.680Z,22.70
2019-03-06T21:12:26.894Z,24.17
2019-03-06T21:14:03.123Z,20.13
2019-03-06T21:15:39.153Z,23.63